createdAt,value
2022-10-10T00:01:34.246Z,100050.97
2022-10-10T00:04:02.610Z,100060.31
2022-10-10T00:06:33.070Z,100056.00
2022-10-10T00:09:03.217Z,100054.16
2022-10-10T00:11:31.234Z,100054.91
2022-10-10T00:13:59.367Z,100055.72
2022-10-10T00:16:26.986Z,100060.84
2022-10-10T00:18:54.629Z,100059.84
2022-10-10T00:21:22.214Z,100055.63
2022-10-10T00:23:49.721Z,100049.56
2022-10-10T00:26:19.510Z,100053.78
2022-10-10T00:28:47.458Z,100048.66
2022-10-10T00:31:15.741Z,100047.81
2022-10-10T00:33:43.244Z,100057.28
2022-10-10T00:36:10.952Z,100055.53
2022-10-10T00:38:38.473Z,100052.13
2022-10-10T00:41:06.326Z,100050.41
2022-10-10T00:43:35.944Z,100052.91
2022-10-10T00:46:03.955Z,100049.38
2022-10-10T00:48:34.299Z,100051.94
2022-10-10T00:51:04.128Z,100046.78
2022-10-10T00:53:35.464Z,100049.38
2022-10-10T00:56:04.354Z,100051.13
2022-10-10T00:58:33.515Z,100049.56
2022-10-10T01:01:02.761Z,100048.84
2022-10-10T01:03:30.274Z,100038.50
2022-10-10T01:05:57.826Z,100046.22
2022-10-10T01:08:25.432Z,100047.22
2022-10-10T01:11:06.188Z,100037.72
2022-10-10T01:13:40.260Z,100033.44
2022-10-10T01:16:17.272Z,100028.31
2022-10-10T01:18:53.345Z,100038.56
2022-10-10T01:21:28.541Z,100033.44
2022-10-10T01:24:31.398Z,100043.81
2022-10-10T01:27:12.402Z,100034.41
2022-10-10T01:29:44.625Z,100043.09
2022-10-10T01:32:17.146Z,100034.38
2022-10-10T01:34:56.643Z,100032.59
2022-10-10T01:37:34.752Z,100041.09
2022-10-10T01:40:10.325Z,100036.81
2022-10-10T01:42:43.779Z,100034.28
2022-10-10T01:45:12.715Z,100033.44
2022-10-10T01:47:40.277Z,100037.63
2022-10-10T01:50:13.529Z,100043.63
2022-10-10T01:52:53.720Z,100034.25
2022-10-10T01:55:35.463Z,100033.34
2022-10-10T01:58:18.743Z,100032.56
2022-10-10T02:00:52.676Z,100022.28
2022-10-10T02:03:25.171Z,100031.69
2022-10-10T02:05:57.248Z,100031.66
2022-10-10T02:08:29.681Z,100017.06
2022-10-10T02:11:01.264Z,100019.66
2022-10-10T02:13:32.216Z,100026.44
2022-10-10T02:16:03.913Z,100016.16
2022-10-10T02:18:36.198Z,100014.53
2022-10-10T02:21:07.311Z,100010.22
2022-10-10T02:23:35.562Z,100012.72
2022-10-10T02:26:05.232Z,100007.66
2022-10-10T02:28:39.025Z,100011.13
2022-10-10T02:31:11.960Z,100018.72
2022-10-10T02:33:45.585Z,100007.66
2022-10-10T02:36:15.336Z,100009.22
2022-10-10T02:38:44.265Z,100010.81
2022-10-10T02:41:15.468Z,100005.53
2022-10-10T02:43:43.431Z,100024.22
2022-10-10T02:46:14.550Z,100020.66
2022-10-10T02:48:42.371Z,100012.72
2022-10-10T02:51:10.588Z,100023.75
2022-10-10T02:53:39.661Z,100023.59
2022-10-10T02:56:07.840Z,100016.72
2022-10-10T02:58:35.555Z,100021.72
2022-10-10T03:01:03.216Z,100021.72
2022-10-10T03:03:32.085Z,100028.50
2022-10-10T03:05:59.621Z,100029.31
2022-10-10T03:08:27.138Z,100024.19
2022-10-10T03:10:56.703Z,100028.50
2022-10-10T03:13:25.173Z,100023.31
2022-10-10T03:15:52.801Z,100020.69
2022-10-10T03:18:21.104Z,100021.44
2022-10-10T03:20:52.815Z,100023.94
2022-10-10T03:23:20.736Z,100019.59
2022-10-10T03:25:48.347Z,100021.22
2022-10-10T03:28:16.125Z,100027.16
2022-10-10T03:30:44.075Z,100020.13
2022-10-10T03:33:11.631Z,100026.16
2022-10-10T03:35:39.152Z,100033.81
2022-10-10T03:38:08.393Z,100036.31
2022-10-10T03:40:41.761Z,100040.50
2022-10-10T03:43:09.371Z,100038.06
2022-10-10T03:45:37.185Z,100032.81
2022-10-10T03:48:05.885Z,100025.13
2022-10-10T03:50:33.400Z,100025.19
2022-10-10T03:53:00.924Z,100029.47
2022-10-10T03:55:29.861Z,100036.41
2022-10-10T03:57:57.384Z,100035.59
2022-10-10T04:00:25.104Z,100029.53
2022-10-10T04:02:53.565Z,100035.59
2022-10-10T04:05:21.367Z,100034.59
2022-10-10T04:07:48.920Z,100022.56
2022-10-10T04:10:16.806Z,100024.41
2022-10-10T04:12:45.687Z,100028.13
2022-10-10T04:15:13.198Z,100029.94
2022-10-10T04:17:40.701Z,100030.03
2022-10-10T04:20:08.964Z,100036.84
2022-10-10T04:22:36.581Z,100036.72
2022-10-10T04:25:04.288Z,100032.38
2022-10-10T04:27:31.881Z,100018.44
2022-10-10T04:30:00.721Z,100021.00
2022-10-10T04:32:28.205Z,100031.19
2022-10-10T04:34:55.707Z,100037.06
2022-10-10T04:37:23.240Z,100029.22
2022-10-10T04:39:50.777Z,100025.88
2022-10-10T04:42:18.421Z,100031.00
2022-10-10T04:44:45.959Z,100022.34
2022-10-10T04:47:14.797Z,100035.13
2022-10-10T04:49:42.353Z,100025.44
2022-10-10T04:52:10.146Z,100012.72
2022-10-10T04:54:37.725Z,100020.28
2022-10-10T04:57:05.521Z,100021.09
2022-10-10T04:59:33.805Z,100010.81
2022-10-10T05:02:02.080Z,100013.44
2022-10-10T05:04:31.159Z,100017.78
2022-10-10T05:06:58.776Z,100016.03
2022-10-10T05:09:26.630Z,100023.81
2022-10-10T05:11:54.143Z,100015.28
2022-10-10T05:14:21.669Z,100013.66
2022-10-10T05:16:49.204Z,100018.97
2022-10-10T05:19:16.715Z,100018.25
2022-10-10T05:21:45.604Z,100031.19
2022-10-10T05:24:13.136Z,100026.09
2022-10-10T05:26:43.265Z,100039.09
2022-10-10T05:29:11.032Z,100037.50
2022-10-10T05:31:38.676Z,100039.16
2022-10-10T05:34:06.232Z,100028.19
2022-10-10T05:36:33.800Z,100031.69
2022-10-10T05:39:03.292Z,100030.16
2022-10-10T05:41:30.817Z,100043.19
2022-10-10T05:43:58.403Z,100034.00
2022-10-10T05:46:27.389Z,100040.91
2022-10-10T05:48:55.570Z,100032.47
2022-10-10T05:51:23.132Z,100039.63
2022-10-10T05:53:50.629Z,100038.00
2022-10-10T05:56:19.709Z,100042.47
2022-10-10T05:58:47.309Z,100049.72
2022-10-10T06:01:14.822Z,100052.81
2022-10-10T06:03:42.409Z,100046.00
2022-10-10T06:06:09.970Z,100042.53
2022-10-10T06:08:37.493Z,100040.75
2022-10-10T06:11:07.854Z,100035.56
2022-10-10T06:13:37.751Z,100040.69
2022-10-10T06:16:05.438Z,100045.91
2022-10-10T06:18:32.980Z,100044.00
2022-10-10T06:21:03.141Z,100047.47
2022-10-10T06:23:30.863Z,100059.41
2022-10-10T06:25:58.517Z,100051.69
2022-10-10T06:28:26.317Z,100049.31
2022-10-10T06:30:55.188Z,100058.13
2022-10-10T06:33:22.776Z,100047.16
2022-10-10T06:35:50.421Z,100049.94
2022-10-10T06:38:18.004Z,100049.47
2022-10-10T06:40:46.405Z,100059.34
2022-10-10T06:43:16.097Z,100066.53
2022-10-10T06:45:45.016Z,100069.69
2022-10-10T06:48:15.671Z,100073.44
2022-10-10T06:50:43.432Z,100079.75
2022-10-10T06:53:11.028Z,100076.66
2022-10-10T06:55:38.673Z,100078.72
2022-10-10T06:58:07.486Z,100077.06
2022-10-10T07:00:35.118Z,100073.81
2022-10-10T07:03:02.651Z,100075.84
2022-10-10T07:05:31.527Z,100094.94
2022-10-10T07:07:59.057Z,100091.72
2022-10-10T07:10:26.617Z,100090.03
2022-10-10T07:12:54.422Z,100093.47
2022-10-10T07:15:22.079Z,100103.78
2022-10-10T07:17:54.270Z,100108.03
2022-10-10T07:20:21.973Z,100105.25
2022-10-10T07:22:51.272Z,100113.09
2022-10-10T07:25:18.973Z,100111.97
2022-10-10T07:27:46.524Z,100101.63
2022-10-10T07:30:14.470Z,100107.56
2022-10-10T07:32:44.152Z,100110.94
2022-10-10T07:35:12.305Z,100105.00
2022-10-10T07:37:40.076Z,100111.91
2022-10-10T07:40:10.589Z,100110.34
2022-10-10T07:42:38.241Z,100107.66
2022-10-10T07:45:07.182Z,100110.00
2022-10-10T07:47:34.817Z,100115.16
2022-10-10T07:50:02.526Z,100112.59
2022-10-10T07:52:30.063Z,100113.41
2022-10-10T07:54:57.612Z,100115.09
2022-10-10T07:57:26.651Z,100113.34
2022-10-10T07:59:54.242Z,100115.09
2022-10-10T08:02:21.792Z,100122.84
2022-10-10T08:04:49.968Z,100118.66
2022-10-10T08:07:19.469Z,100117.94
2022-10-10T08:09:47.080Z,100118.97
2022-10-10T08:12:14.685Z,100123.41
2022-10-10T08:14:43.690Z,100124.34
2022-10-10T08:17:11.591Z,100130.41
2022-10-10T08:19:39.446Z,100132.19
2022-10-10T08:22:07.285Z,100125.53
2022-10-10T08:24:34.940Z,100121.34
2022-10-10T08:27:02.484Z,100123.31
2022-10-10T08:29:30.072Z,100127.91
2022-10-10T08:31:58.982Z,100127.31
2022-10-10T08:34:26.527Z,100129.41
2022-10-10T08:36:54.081Z,100119.56
2022-10-10T08:39:21.788Z,100118.28
2022-10-10T08:41:52.199Z,100124.78
2022-10-10T08:44:25.290Z,100118.41
2022-10-10T08:46:56.560Z,100122.25
2022-10-10T08:49:30.963Z,100120.09
2022-10-10T08:52:04.586Z,100121.31
2022-10-10T08:54:35.451Z,100112.13
2022-10-10T08:57:06.838Z,100108.13
2022-10-10T08:59:36.439Z,100112.75
2022-10-10T09:02:53.262Z,100104.41
2022-10-10T09:05:34.753Z,100095.97
2022-10-10T09:08:17.813Z,100099.69
2022-10-10T09:10:56.227Z,100099.00
2022-10-10T09:13:32.711Z,100100.06
2022-10-10T09:16:02.271Z,100103.75
2022-10-10T09:18:42.285Z,100098.75
2022-10-10T09:21:17.184Z,100104.94
2022-10-10T09:23:51.564Z,100114.50
2022-10-10T09:26:24.163Z,100102.47
2022-10-10T09:28:57.966Z,100100.75
2022-10-10T09:31:37.090Z,100100.78
2022-10-10T09:34:15.099Z,100102.50
2022-10-10T09:36:48.421Z,100092.94
2022-10-10T09:39:23.692Z,100090.31
2022-10-10T09:41:58.995Z,100093.72
2022-10-10T09:44:26.513Z,100084.19
2022-10-10T09:46:55.114Z,100091.06
2022-10-10T09:49:23.115Z,100096.25
2022-10-10T09:51:52.169Z,100088.31
2022-10-10T09:54:22.673Z,100090.81
2022-10-10T09:56:54.686Z,100087.13
2022-10-10T09:59:40.531Z,100092.91
2022-10-10T10:02:15.026Z,100090.13
2022-10-10T10:04:42.648Z,100086.66
2022-10-10T10:07:22.650Z,100094.44
2022-10-10T10:09:51.793Z,100090.91
2022-10-10T10:12:23.016Z,100084.59
2022-10-10T10:14:51.795Z,100086.91
2022-10-10T10:17:24.359Z,100083.00
2022-10-10T10:19:52.192Z,100080.78
2022-10-10T10:22:33.064Z,100087.41
2022-10-10T10:25:21.182Z,100087.16
2022-10-10T10:27:50.103Z,100081.69
2022-10-10T10:30:26.296Z,100084.75
2022-10-10T10:33:02.916Z,100080.56
2022-10-10T10:35:37.156Z,100091.59
2022-10-10T10:38:18.815Z,100085.34
2022-10-10T10:40:54.948Z,100094.16
2022-10-10T10:43:36.757Z,100095.38
2022-10-10T10:46:11.694Z,100093.88
2022-10-10T10:48:46.179Z,100089.16
2022-10-10T10:51:29.526Z,100089.97
2022-10-10T10:54:08.440Z,100092.75
2022-10-10T10:56:42.036Z,100087.13
2022-10-10T11:00:16.654Z,100089.72
2022-10-10T11:02:54.709Z,100085.38
2022-10-10T11:05:41.640Z,100078.44
2022-10-10T11:08:37.493Z,100086.38
2022-10-10T11:11:21.269Z,100095.09
2022-10-10T11:14:00.004Z,100087.31
2022-10-10T11:16:50.584Z,100088.03
2022-10-10T11:19:28.778Z,100080.72
2022-10-10T11:22:03.052Z,100075.31
2022-10-10T11:24:40.184Z,100072.50
2022-10-10T11:27:14.236Z,100074.72
2022-10-10T11:29:53.973Z,100077.91
2022-10-10T11:32:28.252Z,100074.19
2022-10-10T11:35:07.237Z,100067.31
2022-10-10T11:37:40.976Z,100069.56
2022-10-10T11:40:26.651Z,100067.63
2022-10-10T11:42:58.855Z,100062.34
2022-10-10T11:45:29.200Z,100058.44
2022-10-10T11:48:05.917Z,100059.13
2022-10-10T11:50:38.328Z,100066.22
2022-10-10T11:53:13.104Z,100056.22
2022-10-10T11:55:46.321Z,100061.38
2022-10-10T11:58:26.092Z,100043.31
2022-10-10T12:00:57.544Z,100046.56
2022-10-10T12:03:27.200Z,100052.38
2022-10-10T12:06:01.110Z,100055.00
2022-10-10T12:08:35.862Z,100051.69
2022-10-10T12:11:10.654Z,100050.41
2022-10-10T12:13:41.231Z,100057.91
2022-10-10T12:16:11.248Z,100047.75
2022-10-10T12:18:45.810Z,100046.31
2022-10-10T12:21:15.876Z,100047.03
2022-10-10T12:23:47.301Z,100043.72
2022-10-10T12:26:17.586Z,100047.41
2022-10-10T12:29:05.937Z,100050.06
2022-10-10T12:31:36.029Z,100050.59
2022-10-10T12:34:14.202Z,100038.59
2022-10-10T12:36:58.049Z,100040.66
2022-10-10T12:40:01.546Z,100040.81
2022-10-10T12:42:31.344Z,100042.63
2022-10-10T12:44:58.857Z,100041.09
2022-10-10T12:48:03.264Z,100036.81
2022-10-10T12:50:27.828Z,100036.44
2022-10-10T12:52:58.478Z,100030.75
2022-10-10T12:55:29.999Z,100035.31
2022-10-10T12:58:00.803Z,100032.50
2022-10-10T13:00:37.153Z,100041.84
2022-10-10T13:03:13.441Z,100031.59
2022-10-10T13:05:42.659Z,100038.13
2022-10-10T13:08:16.066Z,100033.91
2022-10-10T13:10:44.119Z,100028.28
2022-10-10T13:13:18.872Z,100029.69
2022-10-10T13:15:53.250Z,100032.59
2022-10-10T13:18:33.939Z,100021.44
2022-10-10T13:21:04.137Z,100022.13
2022-10-10T13:23:32.892Z,100021.06
2022-10-10T13:26:00.613Z,100022.66
2022-10-10T13:28:29.049Z,100021.84
2022-10-10T13:30:56.854Z,100018.56
2022-10-10T13:33:30.210Z,100020.59
2022-10-10T13:36:07.700Z,100020.66
2022-10-10T13:38:36.584Z,100019.50
2022-10-10T13:41:05.535Z,100016.78
2022-10-10T13:43:34.296Z,100007.72
2022-10-10T13:46:03.463Z,100010.91
2022-10-10T13:48:40.883Z,100010.25
2022-10-10T13:51:12.137Z,100016.38
2022-10-10T13:53:50.528Z,100013.13
2022-10-10T13:56:26.466Z,100013.25
2022-10-10T13:58:58.053Z,100012.94
2022-10-10T14:01:32.930Z,100004.59
2022-10-10T14:04:08.672Z,100006.16
2022-10-10T14:06:37.844Z,100016.94
2022-10-10T14:09:10.297Z,100016.03
2022-10-10T14:11:38.371Z,100011.06
2022-10-10T14:14:09.405Z,100013.44
2022-10-10T14:16:37.030Z,100018.66
2022-10-10T14:19:04.603Z,100018.38
2022-10-10T14:21:32.284Z,100012.75
2022-10-10T14:24:01.319Z,100014.00
2022-10-10T14:26:29.024Z,100013.16
2022-10-10T14:28:56.655Z,100025.09
2022-10-10T14:31:26.270Z,100019.03
2022-10-10T14:33:54.026Z,100014.91
2022-10-10T14:36:22.125Z,100013.31
2022-10-10T14:38:49.749Z,100010.47
2022-10-10T14:41:18.705Z,100009.03
2022-10-10T14:43:46.453Z,100016.50
2022-10-10T14:46:19.253Z,100018.97
2022-10-10T14:48:47.338Z,100015.25
2022-10-10T14:51:33.932Z,100014.72
2022-10-10T14:54:11.989Z,100019.69
2022-10-10T14:57:06.825Z,100015.03
2022-10-10T14:59:47.331Z,100015.78
2022-10-10T15:02:16.489Z,100015.53
2022-10-10T15:04:44.072Z,100013.53
2022-10-10T15:07:14.673Z,100012.50
2022-10-10T15:09:56.595Z,100013.19
2022-10-10T15:12:32.175Z,100018.09
2022-10-10T15:14:59.723Z,100013.34
2022-10-10T15:17:29.556Z,100020.16
2022-10-10T15:19:57.201Z,100018.94
2022-10-10T15:22:24.870Z,100014.06
2022-10-10T15:24:52.571Z,100017.31
2022-10-10T15:27:20.350Z,100021.66
2022-10-10T15:29:49.301Z,100025.25
2022-10-10T15:32:16.870Z,100025.66
2022-10-10T15:34:44.921Z,100032.66
2022-10-10T15:37:12.504Z,100027.88
2022-10-10T15:39:41.138Z,100029.38
2022-10-10T15:42:14.996Z,100030.06
2022-10-10T15:44:46.554Z,100030.44
2022-10-10T15:47:16.992Z,100033.53
2022-10-10T15:49:44.700Z,100037.97
2022-10-10T15:52:12.291Z,100042.59
2022-10-10T15:54:40.061Z,100038.00
2022-10-10T15:57:07.789Z,100035.31
2022-10-10T15:59:37.938Z,100041.72
2022-10-10T16:02:08.156Z,100044.00
2022-10-10T16:04:37.088Z,100042.34
2022-10-10T16:07:25.486Z,100046.97
2022-10-10T16:09:53.516Z,100044.06
2022-10-10T16:12:21.097Z,100048.66
2022-10-10T16:14:48.842Z,100046.41
2022-10-10T16:17:20.797Z,100044.28
2022-10-10T16:19:52.366Z,100046.97
2022-10-10T16:22:20.292Z,100050.19
2022-10-10T16:25:10.164Z,100042.34
2022-10-10T16:27:36.565Z,100042.75
2022-10-10T16:30:04.549Z,100037.69
2022-10-10T16:32:34.195Z,100046.78
2022-10-10T16:35:06.387Z,100044.78
2022-10-10T16:37:34.223Z,100050.34
2022-10-10T16:40:01.769Z,100052.53
2022-10-10T16:42:29.357Z,100052.75
2022-10-10T16:44:56.970Z,100053.88
2022-10-10T16:47:24.537Z,100058.44
2022-10-10T16:49:52.061Z,100060.47
2022-10-10T16:52:20.937Z,100067.81
2022-10-10T16:54:51.962Z,100067.09
2022-10-10T16:57:20.146Z,100070.69
2022-10-10T16:59:47.839Z,100076.97
2022-10-10T17:02:15.429Z,100078.78
2022-10-10T17:04:43.007Z,100082.31
2022-10-10T17:07:10.547Z,100089.44
2022-10-10T17:09:39.488Z,100079.91
2022-10-10T17:12:07.184Z,100079.97
2022-10-10T17:14:34.963Z,100087.03
2022-10-10T17:17:17.716Z,100084.59
2022-10-10T17:19:45.283Z,100098.59
2022-10-10T17:22:12.844Z,100089.09
2022-10-10T17:24:41.778Z,100097.03
2022-10-10T17:27:09.531Z,100110.94
2022-10-10T17:29:37.161Z,100107.50
2022-10-10T17:32:06.753Z,100106.66
2022-10-10T17:34:35.039Z,100109.28
2022-10-10T17:37:02.729Z,100121.47
2022-10-10T17:39:30.281Z,100123.22
2022-10-10T17:41:59.919Z,100125.81
2022-10-10T17:44:27.479Z,100126.72
2022-10-10T17:46:55.077Z,100139.75
2022-10-10T17:49:22.670Z,100136.28
2022-10-10T17:51:50.248Z,100131.94
2022-10-10T17:54:18.235Z,100128.50
2022-10-10T17:56:45.813Z,100130.22
2022-10-10T17:59:14.712Z,100130.25
2022-10-10T18:01:42.557Z,100138.91
2022-10-10T18:04:10.358Z,100154.53
2022-10-10T18:06:38.685Z,100151.94
2022-10-10T18:09:07.241Z,100144.13
2022-10-10T18:11:35.074Z,100148.47
2022-10-10T18:14:02.582Z,100158.00
2022-10-10T18:16:34.107Z,100158.00
2022-10-10T18:19:03.291Z,100164.09
2022-10-10T18:21:30.852Z,100168.44
2022-10-10T18:23:58.624Z,100181.44
2022-10-10T18:26:29.348Z,100173.63
2022-10-10T18:28:58.061Z,100171.88
2022-10-10T18:31:27.881Z,100178.81
2022-10-10T18:33:57.180Z,100184.91
2022-10-10T18:36:27.167Z,100187.50
2022-10-10T18:38:55.303Z,100188.38
2022-10-10T18:41:25.076Z,100189.25
2022-10-10T18:43:53.014Z,100185.75
2022-10-10T18:46:22.441Z,100187.50
2022-10-10T18:48:54.083Z,100185.75
2022-10-10T18:51:25.868Z,100187.50
2022-10-10T18:53:58.423Z,100192.69
2022-10-10T18:56:25.981Z,100185.75
2022-10-10T18:58:56.163Z,100194.41
2022-10-10T19:01:25.424Z,100193.53
2022-10-10T19:03:54.640Z,100203.94
2022-10-10T19:06:24.487Z,100199.59
2022-10-10T19:08:52.561Z,100204.78
2022-10-10T19:11:21.897Z,100204.78
2022-10-10T19:13:49.967Z,100208.25
2022-10-10T19:16:18.513Z,100209.97
2022-10-10T19:18:46.447Z,100213.44
2022-10-10T19:21:15.000Z,100217.75
2022-10-10T19:23:44.287Z,100225.53
2022-10-10T19:26:14.514Z,100225.50
2022-10-10T19:28:42.617Z,100211.59
2022-10-10T19:31:13.491Z,100223.72
2022-10-10T19:33:42.225Z,100225.44
2022-10-10T19:36:12.083Z,100227.13
2022-10-10T19:38:42.002Z,100232.34
2022-10-10T19:41:14.000Z,100243.59
2022-10-10T19:43:41.694Z,100243.56
2022-10-10T19:46:12.340Z,100229.72
2022-10-10T19:48:40.365Z,100241.84
2022-10-10T19:51:10.255Z,100244.41
2022-10-10T19:53:38.085Z,100249.59
2022-10-10T19:56:07.981Z,100255.63
2022-10-10T19:58:37.600Z,100256.50
2022-10-10T20:01:07.530Z,100257.38
2022-10-10T20:03:35.141Z,100264.31
2022-10-10T20:06:03.786Z,100272.16
2022-10-10T20:08:31.672Z,100283.41
2022-10-10T20:10:59.224Z,100269.56
2022-10-10T20:13:27.288Z,100284.50
2022-10-10T20:16:00.924Z,100282.84
2022-10-10T20:18:28.853Z,100289.81
2022-10-10T20:20:56.604Z,100295.94
2022-10-10T20:23:26.019Z,100312.44
2022-10-10T20:25:53.996Z,100312.47
2022-10-10T20:28:22.546Z,100310.72
2022-10-10T20:30:52.177Z,100316.81
2022-10-10T20:33:22.311Z,100322.03
2022-10-10T20:35:55.145Z,100324.66
2022-10-10T20:38:25.676Z,100322.06
2022-10-10T20:40:53.261Z,100329.88
2022-10-10T20:43:20.773Z,100332.50
2022-10-10T20:45:48.362Z,100333.34
2022-10-10T20:48:15.892Z,100345.50
2022-10-10T20:50:44.884Z,100342.03
2022-10-10T20:53:13.335Z,100344.63
2022-10-10T20:55:42.229Z,100344.63
2022-10-10T20:58:09.977Z,100344.63
2022-10-10T21:00:40.835Z,100349.84
2022-10-10T21:03:08.536Z,100359.41
2022-10-10T21:05:36.125Z,100357.63
2022-10-10T21:08:05.236Z,100359.38
2022-10-10T21:10:33.103Z,100369.81
2022-10-10T21:13:00.744Z,100369.81
2022-10-10T21:15:28.283Z,100370.66
2022-10-10T21:17:55.953Z,100366.31
2022-10-10T21:20:23.552Z,100368.94
2022-10-10T21:22:51.109Z,100370.69
2022-10-10T21:25:20.001Z,100368.94
2022-10-10T21:27:49.796Z,100374.97
2022-10-10T21:30:17.472Z,100381.03
2022-10-10T21:32:45.121Z,100381.88
2022-10-10T21:35:12.780Z,100380.16
2022-10-10T21:37:41.304Z,100390.59
2022-10-10T21:40:10.041Z,100394.03
2022-10-10T21:42:39.061Z,100392.31
2022-10-10T21:45:08.041Z,100394.94
2022-10-10T21:47:35.660Z,100412.28
2022-10-10T21:50:03.163Z,100407.91
2022-10-10T21:52:30.683Z,100414.84
2022-10-10T21:54:58.191Z,100416.59
2022-10-10T21:57:25.763Z,100417.47
2022-10-10T21:59:54.635Z,100413.09
2022-10-10T22:02:22.203Z,100414.84
2022-10-10T22:04:51.361Z,100415.72
2022-10-10T22:07:19.245Z,100417.47
2022-10-10T22:09:46.790Z,100421.81
2022-10-10T22:12:15.792Z,100423.47
2022-10-10T22:14:43.447Z,100429.56
2022-10-10T22:17:12.291Z,100430.44
2022-10-10T22:19:39.876Z,100442.56
2022-10-10T22:22:07.390Z,100443.41
2022-10-10T22:24:34.891Z,100443.41
2022-10-10T22:27:02.443Z,100443.41
2022-10-10T22:29:29.979Z,100446.88
2022-10-10T22:31:57.671Z,100450.31
2022-10-10T22:34:26.582Z,100456.41
2022-10-10T22:36:55.423Z,100445.94
2022-10-10T22:39:23.013Z,100452.03
2022-10-10T22:41:50.665Z,100453.75
2022-10-10T22:44:18.392Z,100456.34
2022-10-10T22:46:45.923Z,100458.09
2022-10-10T22:49:13.472Z,100458.97
2022-10-10T22:51:42.323Z,100462.41
2022-10-10T22:54:11.677Z,100464.97
2022-10-10T22:56:39.200Z,100463.22
2022-10-10T22:59:06.715Z,100464.03
2022-10-10T23:01:34.260Z,100468.38
2022-10-10T23:04:09.077Z,100470.13
2022-10-10T23:06:36.948Z,100473.56
2022-10-10T23:09:06.017Z,100479.63
2022-10-10T23:11:33.875Z,100487.41
2022-10-10T23:14:01.697Z,100486.56
2022-10-10T23:16:31.693Z,100481.31
2022-10-10T23:19:00.444Z,100481.28
2022-10-10T23:21:28.095Z,100483.91
2022-10-10T23:23:55.789Z,100483.91
2022-10-10T23:26:24.640Z,100480.44
2022-10-10T23:28:52.283Z,100476.94
2022-10-10T23:31:19.959Z,100474.34
2022-10-10T23:33:47.511Z,100475.19
2022-10-10T23:36:16.090Z,100468.16
2022-10-10T23:38:44.455Z,100482.00
2022-10-10T23:41:13.033Z,100483.72
2022-10-10T23:43:41.913Z,100484.50
2022-10-10T23:46:09.603Z,100492.31
2022-10-10T23:48:37.740Z,100494.88
2022-10-10T23:51:05.490Z,100501.78
2022-10-10T23:53:33.217Z,100491.34
2022-10-10T23:56:00.871Z,100494.78
2022-10-10T23:58:28.677Z,100497.38
